sensor_id;sensor_type;location;lat;lon;timestamp;temperature;humidity
11446;DHT22;5779;64.178;15.432;2022-11-18T00:02:24;-11.40;99.90
11446;DHT22;5779;64.178;15.432;2022-11-18T00:05:11;-11.40;99.90
11446;DHT22;5779;64.178;15.432;2022-11-18T00:07:59;-11.50;99.90
11446;DHT22;5779;64.178;15.432;2022-11-18T00:10:46;-11.40;99.90
11446;DHT22;5779;64.178;15.432;2022-11-18T00:13:33;-11.40;99.90
11446;DHT22;5779;64.178;15.432;2022-11-18T00:16:37;-11.30;99.90
11446;DHT22;5779;64.178;15.432;2022-11-18T00:19:25;-11.40;99.90
11446;DHT22;5779;64.178;15.432;2022-11-18T00:22:12;-11.40;99.90
11446;DHT22;5779;64.178;15.432;2022-11-18T00:25:00;-12.00;99.90
11446;DHT22;5779;64.178;15.432;2022-11-18T00:27:47;-12.20;99.90
11446;DHT22;5779;64.178;15.432;2022-11-18T00:30:34;-12.40;99.90
11446;DHT22;5779;64.178;15.432;2022-11-18T00:33:21;-12.30;99.90
11446;DHT22;5779;64.178;15.432;2022-11-18T00:36:10;-12.30;99.90
11446;DHT22;5779;64.178;15.432;2022-11-18T00:38:57;-12.20;99.90
11446;DHT22;5779;64.178;15.432;2022-11-18T00:41:46;-12.20;99.90
11446;DHT22;5779;64.178;15.432;2022-11-18T00:44:50;-12.10;99.90
11446;DHT22;5779;64.178;15.432;2022-11-18T00:47:37;-12.00;99.90
11446;DHT22;5779;64.178;15.432;2022-11-18T00:50:24;-12.20;99.90
11446;DHT22;5779;64.178;15.432;2022-11-18T00:53:11;-12.30;99.90
11446;DHT22;5779;64.178;15.432;2022-11-18T00:55:58;-12.30;99.90
11446;DHT22;5779;64.178;15.432;2022-11-18T00:58:46;-12.20;99.90
11446;DHT22;5779;64.178;15.432;2022-11-18T01:01:33;-12.00;99.90
11446;DHT22;5779;64.178;15.432;2022-11-18T01:04:20;-12.00;99.90
11446;DHT22;5779;64.178;15.432;2022-11-18T01:07:07;-12.10;99.90
11446;DHT22;5779;64.178;15.432;2022-11-18T01:09:54;-12.10;99.90
11446;DHT22;5779;64.178;15.432;2022-11-18T01:12:41;-11.90;99.90
11446;DHT22;5779;64.178;15.432;2022-11-18T01:15:49;-11.60;99.90
11446;DHT22;5779;64.178;15.432;2022-11-18T01:18:36;-11.40;99.90
11446;DHT22;5779;64.178;15.432;2022-11-18T01:21:23;-11.50;99.90
11446;DHT22;5779;64.178;15.432;2022-11-18T01:24:10;-11.40;99.90
11446;DHT22;5779;64.178;15.432;2022-11-18T01:26:57;-11.40;99.90
11446;DHT22;5779;64.178;15.432;2022-11-18T01:29:44;-11.40;99.90
11446;DHT22;5779;64.178;15.432;2022-11-18T01:32:32;-11.40;99.90
11446;DHT22;5779;64.178;15.432;2022-11-18T01:35:19;-11.20;99.90
11446;DHT22;5779;64.178;15.432;2022-11-18T01:38:07;-11.20;99.90
11446;DHT22;5779;64.178;15.432;2022-11-18T01:40:54;-11.20;99.90
11446;DHT22;5779;64.178;15.432;2022-11-18T01:43:50;-11.20;99.90
11446;DHT22;5779;64.178;15.432;2022-11-18T01:46:37;-11.10;99.90
11446;DHT22;5779;64.178;15.432;2022-11-18T01:49:25;-11.00;99.90
11446;DHT22;5779;64.178;15.432;2022-11-18T01:52:14;-11.20;99.90
11446;DHT22;5779;64.178;15.432;2022-11-18T01:55:05;-11.20;99.90
11446;DHT22;5779;64.178;15.432;2022-11-18T01:57:57;-11.30;99.90
11446;DHT22;5779;64.178;15.432;2022-11-18T02:00:47;-11.40;99.90
11446;DHT22;5779;64.178;15.432;2022-11-18T02:03:34;-11.50;99.90
11446;DHT22;5779;64.178;15.432;2022-11-18T02:06:24;-11.50;99.90
11446;DHT22;5779;64.178;15.432;2022-11-18T02:09:12;-11.50;99.90
11446;DHT22;5779;64.178;15.432;2022-11-18T02:11:59;-11.50;99.90
11446;DHT22;5779;64.178;15.432;2022-11-18T02:14:46;-11.40;99.90
11446;DHT22;5779;64.178;15.432;2022-11-18T02:17:42;-11.30;99.90
11446;DHT22;5779;64.178;15.432;2022-11-18T02:20:32;-11.20;99.90
11446;DHT22;5779;64.178;15.432;2022-11-18T02:30:06;-11.20;99.90
11446;DHT22;5779;64.178;15.432;2022-11-18T02:32:56;-11.30;99.90
11446;DHT22;5779;64.178;15.432;2022-11-18T02:35:46;-11.50;99.90
11446;DHT22;5779;64.178;15.432;2022-11-18T02:38:41;-11.40;99.90
11446;DHT22;5779;64.178;15.432;2022-11-18T02:41:31;-11.40;99.90
11446;DHT22;5779;64.178;15.432;2022-11-18T02:44:21;-11.30;99.90
11446;DHT22;5779;64.178;15.432;2022-11-18T02:47:12;-11.30;99.90
11446;DHT22;5779;64.178;15.432;2022-11-18T02:50:03;-11.30;99.90
11446;DHT22;5779;64.178;15.432;2022-11-18T02:52:55;-11.20;99.90
11446;DHT22;5779;64.178;15.432;2022-11-18T02:55:43;-11.20;99.90
11446;DHT22;5779;64.178;15.432;2022-11-18T02:58:30;-11.20;99.90
11446;DHT22;5779;64.178;15.432;2022-11-18T03:01:20;-11.10;99.90
11446;DHT22;5779;64.178;15.432;2022-11-18T03:04:10;-11.00;99.90
11446;DHT22;5779;64.178;15.432;2022-11-18T03:07:02;-10.90;99.90
11446;DHT22;5779;64.178;15.432;2022-11-18T03:09:52;-10.80;99.90
11446;DHT22;5779;64.178;15.432;2022-11-18T03:12:44;-10.80;99.90
11446;DHT22;5779;64.178;15.432;2022-11-18T03:15:35;-10.70;99.90
11446;DHT22;5779;64.178;15.432;2022-11-18T03:18:29;-10.80;99.90
11446;DHT22;5779;64.178;15.432;2022-11-18T03:21:23;-10.90;99.90
11446;DHT22;5779;64.178;15.432;2022-11-18T03:24:19;-10.90;99.90
11446;DHT22;5779;64.178;15.432;2022-11-18T03:27:11;-11.00;99.90
11446;DHT22;5779;64.178;15.432;2022-11-18T03:30:04;-10.90;99.90
11446;DHT22;5779;64.178;15.432;2022-11-18T03:32:56;-10.80;99.90
11446;DHT22;5779;64.178;15.432;2022-11-18T03:35:46;-10.80;99.90
11446;DHT22;5779;64.178;15.432;2022-11-18T03:38:37;-10.80;99.90
11446;DHT22;5779;64.178;15.432;2022-11-18T03:41:28;-10.80;99.90
11446;DHT22;5779;64.178;15.432;2022-11-18T03:44:20;-10.80;99.90
11446;DHT22;5779;64.178;15.432;2022-11-18T03:47:10;-10.80;99.90
11446;DHT22;5779;64.178;15.432;2022-11-18T03:50:01;-10.70;99.90
11446;DHT22;5779;64.178;15.432;2022-11-18T03:52:50;-10.70;99.90
11446;DHT22;5779;64.178;15.432;2022-11-18T03:55:43;-10.70;99.90
11446;DHT22;5779;64.178;15.432;2022-11-18T03:58:37;-10.50;99.90
11446;DHT22;5779;64.178;15.432;2022-11-18T04:01:30;-10.20;99.90
11446;DHT22;5779;64.178;15.432;2022-11-18T04:04:18;-9.90;99.90
11446;DHT22;5779;64.178;15.432;2022-11-18T04:07:10;-9.70;99.90
11446;DHT22;5779;64.178;15.432;2022-11-18T04:10:05;-9.40;99.90
11446;DHT22;5779;64.178;15.432;2022-11-18T04:13:00;-9.70;99.90
11446;DHT22;5779;64.178;15.432;2022-11-18T04:15:48;-10.00;99.90
11446;DHT22;5779;64.178;15.432;2022-11-18T04:18:35;-10.20;99.90
11446;DHT22;5779;64.178;15.432;2022-11-18T04:21:22;-10.30;99.90
11446;DHT22;5779;64.178;15.432;2022-11-18T04:24:09;-10.40;99.90
11446;DHT22;5779;64.178;15.432;2022-11-18T04:26:56;-10.40;99.90
11446;DHT22;5779;64.178;15.432;2022-11-18T04:29:44;-10.40;99.90
11446;DHT22;5779;64.178;15.432;2022-11-18T04:32:31;-10.40;99.90
11446;DHT22;5779;64.178;15.432;2022-11-18T04:35:18;-10.40;99.90
11446;DHT22;5779;64.178;15.432;2022-11-18T04:38:05;-10.30;99.90
11446;DHT22;5779;64.178;15.432;2022-11-18T04:40:52;-10.30;99.90
11446;DHT22;5779;64.178;15.432;2022-11-18T04:43:39;-10.30;99.90
11446;DHT22;5779;64.178;15.432;2022-11-18T04:46:28;-10.20;99.90
11446;DHT22;5779;64.178;15.432;2022-11-18T04:49:15;-10.10;99.90
11446;DHT22;5779;64.178;15.432;2022-11-18T04:52:02;-10.10;99.90
11446;DHT22;5779;64.178;15.432;2022-11-18T04:54:49;-10.00;99.90
11446;DHT22;5779;64.178;15.432;2022-11-18T04:57:36;-9.70;99.90
11446;DHT22;5779;64.178;15.432;2022-11-18T05:00:22;-9.40;99.90
11446;DHT22;5779;64.178;15.432;2022-11-18T05:03:11;-9.30;99.90
11446;DHT22;5779;64.178;15.432;2022-11-18T05:06:01;-9.10;99.90
11446;DHT22;5779;64.178;15.432;2022-11-18T05:08:47;-9.20;99.90
11446;DHT22;5779;64.178;15.432;2022-11-18T05:11:34;-9.50;99.90
11446;DHT22;5779;64.178;15.432;2022-11-18T05:14:38;-9.50;99.90
11446;DHT22;5779;64.178;15.432;2022-11-18T05:17:25;-9.40;99.90
11446;DHT22;5779;64.178;15.432;2022-11-18T05:20:14;-9.30;99.90
11446;DHT22;5779;64.178;15.432;2022-11-18T05:23:01;-9.20;99.90
11446;DHT22;5779;64.178;15.432;2022-11-18T05:25:47;-9.10;99.90
11446;DHT22;5779;64.178;15.432;2022-11-18T05:28:35;-9.00;99.90
11446;DHT22;5779;64.178;15.432;2022-11-18T05:31:22;-9.20;99.90
11446;DHT22;5779;64.178;15.432;2022-11-18T05:34:08;-9.50;99.90
11446;DHT22;5779;64.178;15.432;2022-11-18T05:36:57;-9.50;99.90
11446;DHT22;5779;64.178;15.432;2022-11-18T05:39:43;-9.50;99.90
11446;DHT22;5779;64.178;15.432;2022-11-18T05:42:30;-9.40;99.90
11446;DHT22;5779;64.178;15.432;2022-11-18T05:45:34;-9.30;99.90
11446;DHT22;5779;64.178;15.432;2022-11-18T05:48:21;-9.50;99.90
11446;DHT22;5779;64.178;15.432;2022-11-18T05:51:08;-9.60;99.90
11446;DHT22;5779;64.178;15.432;2022-11-18T05:53:56;-9.70;99.90
11446;DHT22;5779;64.178;15.432;2022-11-18T05:56:44;-9.80;99.90
11446;DHT22;5779;64.178;15.432;2022-11-18T05:59:31;-9.70;99.90
11446;DHT22;5779;64.178;15.432;2022-11-18T06:02:20;-9.70;99.90
11446;DHT22;5779;64.178;15.432;2022-11-18T06:05:10;-9.50;99.90
11446;DHT22;5779;64.178;15.432;2022-11-18T06:07:57;-9.60;99.90
11446;DHT22;5779;64.178;15.432;2022-11-18T06:10:46;-9.60;99.90
11446;DHT22;5779;64.178;15.432;2022-11-18T06:13:35;-9.30;99.90
11446;DHT22;5779;64.178;15.432;2022-11-18T06:16:26;-9.10;99.90
11446;DHT22;5779;64.178;15.432;2022-11-18T06:19:14;-9.00;99.90
11446;DHT22;5779;64.178;15.432;2022-11-18T06:22:03;-8.80;99.90
11446;DHT22;5779;64.178;15.432;2022-11-18T06:24:50;-8.60;99.90
11446;DHT22;5779;64.178;15.432;2022-11-18T06:27:38;-8.50;99.90
11446;DHT22;5779;64.178;15.432;2022-11-18T06:30:24;-8.50;99.90
11446;DHT22;5779;64.178;15.432;2022-11-18T06:33:11;-8.40;99.90
11446;DHT22;5779;64.178;15.432;2022-11-18T06:35:58;-8.40;99.90
11446;DHT22;5779;64.178;15.432;2022-11-18T06:38:45;-8.30;99.90
11446;DHT22;5779;64.178;15.432;2022-11-18T06:41:32;-8.50;99.90
11446;DHT22;5779;64.178;15.432;2022-11-18T06:44:20;-9.00;99.90
11446;DHT22;5779;64.178;15.432;2022-11-18T06:47:05;-9.10;99.90
11446;DHT22;5779;64.178;15.432;2022-11-18T06:49:52;-9.10;99.90
11446;DHT22;5779;64.178;15.432;2022-11-18T06:52:39;-8.90;99.90
11446;DHT22;5779;64.178;15.432;2022-11-18T06:55:26;-8.80;99.90
11446;DHT22;5779;64.178;15.432;2022-11-18T06:58:13;-8.90;99.90
11446;DHT22;5779;64.178;15.432;2022-11-18T07:01:10;-8.90;99.90
11446;DHT22;5779;64.178;15.432;2022-11-18T07:03:57;-8.70;99.90
11446;DHT22;5779;64.178;15.432;2022-11-18T07:06:44;-8.90;99.90
11446;DHT22;5779;64.178;15.432;2022-11-18T07:09:32;-9.00;99.90
11446;DHT22;5779;64.178;15.432;2022-11-18T07:12:19;-8.80;99.90
11446;DHT22;5779;64.178;15.432;2022-11-18T07:15:07;-9.00;99.90
11446;DHT22;5779;64.178;15.432;2022-11-18T07:17:55;-8.80;99.90
11446;DHT22;5779;64.178;15.432;2022-11-18T07:20:42;-8.80;99.90
11446;DHT22;5779;64.178;15.432;2022-11-18T07:23:29;-8.70;99.90
11446;DHT22;5779;64.178;15.432;2022-11-18T07:26:17;-8.80;99.90
11446;DHT22;5779;64.178;15.432;2022-11-18T07:29:04;-8.90;99.90
11446;DHT22;5779;64.178;15.432;2022-11-18T07:31:51;-8.90;99.90
11446;DHT22;5779;64.178;15.432;2022-11-18T07:34:39;-9.20;99.90
11446;DHT22;5779;64.178;15.432;2022-11-18T07:37:26;-9.20;99.90
11446;DHT22;5779;64.178;15.432;2022-11-18T07:40:12;-9.40;99.90
11446;DHT22;5779;64.178;15.432;2022-11-18T07:42:59;-9.60;99.90
11446;DHT22;5779;64.178;15.432;2022-11-18T07:45:46;-9.70;99.90
11446;DHT22;5779;64.178;15.432;2022-11-18T07:48:33;-9.70;99.90
11446;DHT22;5779;64.178;15.432;2022-11-18T07:51:24;-9.80;99.90
11446;DHT22;5779;64.178;15.432;2022-11-18T07:54:12;-9.80;99.90
11446;DHT22;5779;64.178;15.432;2022-11-18T07:57:01;-9.70;99.90
11446;DHT22;5779;64.178;15.432;2022-11-18T07:59:48;-9.70;99.90
11446;DHT22;5779;64.178;15.432;2022-11-18T08:02:35;-9.80;99.90
11446;DHT22;5779;64.178;15.432;2022-11-18T08:05:22;-9.90;99.90
11446;DHT22;5779;64.178;15.432;2022-11-18T08:08:10;-9.70;99.90
11446;DHT22;5779;64.178;15.432;2022-11-18T08:10:57;-9.50;99.90
11446;DHT22;5779;64.178;15.432;2022-11-18T08:13:44;-9.40;99.90
11446;DHT22;5779;64.178;15.432;2022-11-18T08:16:31;-9.30;99.90
11446;DHT22;5779;64.178;15.432;2022-11-18T08:19:18;-9.20;99.90
11446;DHT22;5779;64.178;15.432;2022-11-18T08:22:05;-9.30;99.90
11446;DHT22;5779;64.178;15.432;2022-11-18T08:24:53;-9.20;99.90
11446;DHT22;5779;64.178;15.432;2022-11-18T08:27:40;-9.40;99.90
11446;DHT22;5779;64.178;15.432;2022-11-18T08:30:27;-9.80;99.90
11446;DHT22;5779;64.178;15.432;2022-11-18T08:33:14;-9.90;99.90
11446;DHT22;5779;64.178;15.432;2022-11-18T08:36:05;-9.60;99.90
11446;DHT22;5779;64.178;15.432;2022-11-18T08:38:53;-9.40;99.90
11446;DHT22;5779;64.178;15.432;2022-11-18T08:41:42;-9.40;99.90
11446;DHT22;5779;64.178;15.432;2022-11-18T08:44:30;-9.30;99.90
11446;DHT22;5779;64.178;15.432;2022-11-18T08:47:18;-9.30;99.90
11446;DHT22;5779;64.178;15.432;2022-11-18T08:50:07;-9.50;99.90
11446;DHT22;5779;64.178;15.432;2022-11-18T08:52:54;-9.60;99.90
11446;DHT22;5779;64.178;15.432;2022-11-18T08:55:41;-9.60;99.90
11446;DHT22;5779;64.178;15.432;2022-11-18T08:58:30;-9.70;99.90
11446;DHT22;5779;64.178;15.432;2022-11-18T09:01:17;-9.70;99.90
11446;DHT22;5779;64.178;15.432;2022-11-18T09:04:04;-9.70;99.90
11446;DHT22;5779;64.178;15.432;2022-11-18T09:06:50;-9.40;99.90
11446;DHT22;5779;64.178;15.432;2022-11-18T09:09:37;-9.10;99.90
11446;DHT22;5779;64.178;15.432;2022-11-18T09:12:24;-8.90;99.90
11446;DHT22;5779;64.178;15.432;2022-11-18T09:15:12;-9.00;99.90
11446;DHT22;5779;64.178;15.432;2022-11-18T09:17:59;-8.80;99.90
11446;DHT22;5779;64.178;15.432;2022-11-18T09:20:53;-8.70;99.90
11446;DHT22;5779;64.178;15.432;2022-11-18T09:23:41;-8.60;99.90
11446;DHT22;5779;64.178;15.432;2022-11-18T09:26:27;-8.40;99.90
11446;DHT22;5779;64.178;15.432;2022-11-18T09:29:14;-8.60;99.90
11446;DHT22;5779;64.178;15.432;2022-11-18T09:32:03;-8.60;99.90
11446;DHT22;5779;64.178;15.432;2022-11-18T09:34:49;-8.60;99.90
11446;DHT22;5779;64.178;15.432;2022-11-18T09:37:36;-8.70;99.90
11446;DHT22;5779;64.178;15.432;2022-11-18T09:40:24;-8.70;99.90
11446;DHT22;5779;64.178;15.432;2022-11-18T09:43:18;-8.80;99.90
11446;DHT22;5779;64.178;15.432;2022-11-18T09:46:15;-8.70;99.90
11446;DHT22;5779;64.178;15.432;2022-11-18T09:49:13;-8.70;99.90
11446;DHT22;5779;64.178;15.432;2022-11-18T09:52:01;-8.80;99.90
11446;DHT22;5779;64.178;15.432;2022-11-18T09:54:49;-8.70;99.90
11446;DHT22;5779;64.178;15.432;2022-11-18T09:57:38;-8.60;99.90
11446;DHT22;5779;64.178;15.432;2022-11-18T10:00:27;-8.80;99.90
11446;DHT22;5779;64.178;15.432;2022-11-18T10:03:19;-8.80;99.90
11446;DHT22;5779;64.178;15.432;2022-11-18T10:06:20;-8.70;99.90
11446;DHT22;5779;64.178;15.432;2022-11-18T10:12:25;-8.60;99.90
11446;DHT22;5779;64.178;15.432;2022-11-18T10:15:21;-8.80;99.90
11446;DHT22;5779;64.178;15.432;2022-11-18T10:18:21;-8.70;99.90
11446;DHT22;5779;64.178;15.432;2022-11-18T10:21:19;-8.50;99.90
11446;DHT22;5779;64.178;15.432;2022-11-18T10:24:12;-8.40;99.90
11446;DHT22;5779;64.178;15.432;2022-11-18T10:27:01;-8.20;99.90
11446;DHT22;5779;64.178;15.432;2022-11-18T10:29:51;-8.20;99.90
11446;DHT22;5779;64.178;15.432;2022-11-18T10:32:53;-8.60;99.90
11446;DHT22;5779;64.178;15.432;2022-11-18T10:35:40;-8.60;99.90
11446;DHT22;5779;64.178;15.432;2022-11-18T10:38:28;-8.50;99.90
11446;DHT22;5779;64.178;15.432;2022-11-18T10:41:16;-8.30;99.90
11446;DHT22;5779;64.178;15.432;2022-11-18T10:44:04;-8.20;99.90
11446;DHT22;5779;64.178;15.432;2022-11-18T10:46:50;-8.40;99.90
11446;DHT22;5779;64.178;15.432;2022-11-18T10:49:38;-8.40;99.90
11446;DHT22;5779;64.178;15.432;2022-11-18T10:52:25;-8.60;99.90
11446;DHT22;5779;64.178;15.432;2022-11-18T10:55:21;-8.60;99.90
11446;DHT22;5779;64.178;15.432;2022-11-18T10:58:12;-8.70;99.90
11446;DHT22;5779;64.178;15.432;2022-11-18T11:01:05;-8.60;99.90
11446;DHT22;5779;64.178;15.432;2022-11-18T11:03:58;-8.40;99.90
11446;DHT22;5779;64.178;15.432;2022-11-18T11:06:46;-8.20;99.90
11446;DHT22;5779;64.178;15.432;2022-11-18T11:09:33;-8.10;99.90
11446;DHT22;5779;64.178;15.432;2022-11-18T11:12:22;-8.00;99.90
11446;DHT22;5779;64.178;15.432;2022-11-18T11:15:10;-8.10;99.90
11446;DHT22;5779;64.178;15.432;2022-11-18T11:18:00;-8.20;99.90
11446;DHT22;5779;64.178;15.432;2022-11-18T11:21:10;-8.00;99.90
11446;DHT22;5779;64.178;15.432;2022-11-18T11:23:57;-8.30;99.90
11446;DHT22;5779;64.178;15.432;2022-11-18T11:26:53;-8.80;99.90
11446;DHT22;5779;64.178;15.432;2022-11-18T11:30:02;-8.90;99.90
11446;DHT22;5779;64.178;15.432;2022-11-18T11:33:06;-8.70;99.90
11446;DHT22;5779;64.178;15.432;2022-11-18T11:36:19;-8.60;99.90
11446;DHT22;5779;64.178;15.432;2022-11-18T11:39:38;-8.50;99.90
11446;DHT22;5779;64.178;15.432;2022-11-18T11:42:38;-8.60;99.90
11446;DHT22;5779;64.178;15.432;2022-11-18T11:45:37;-8.40;99.90
11446;DHT22;5779;64.178;15.432;2022-11-18T11:48:41;-8.40;99.90
11446;DHT22;5779;64.178;15.432;2022-11-18T11:51:33;-8.50;99.90
11446;DHT22;5779;64.178;15.432;2022-11-18T11:54:39;-8.40;99.90
11446;DHT22;5779;64.178;15.432;2022-11-18T11:57:39;-8.50;99.90
11446;DHT22;5779;64.178;15.432;2022-11-18T12:00:31;-8.90;99.90
11446;DHT22;5779;64.178;15.432;2022-11-18T12:03:41;-9.10;99.90
11446;DHT22;5779;64.178;15.432;2022-11-18T12:06:29;-9.20;99.90
11446;DHT22;5779;64.178;15.432;2022-11-18T12:09:20;-9.30;99.90
11446;DHT22;5779;64.178;15.432;2022-11-18T12:12:21;-9.50;99.90
11446;DHT22;5779;64.178;15.432;2022-11-18T12:15:34;-9.50;99.90
11446;DHT22;5779;64.178;15.432;2022-11-18T12:18:28;-9.60;99.90
11446;DHT22;5779;64.178;15.432;2022-11-18T12:24:44;-9.80;99.90
11446;DHT22;5779;64.178;15.432;2022-11-18T12:27:55;-9.90;99.90
11446;DHT22;5779;64.178;15.432;2022-11-18T12:30:44;-9.80;99.90
11446;DHT22;5779;64.178;15.432;2022-11-18T12:33:31;-9.80;99.90
11446;DHT22;5779;64.178;15.432;2022-11-18T12:36:24;-9.60;99.90
11446;DHT22;5779;64.178;15.432;2022-11-18T12:42:43;-9.50;99.90
11446;DHT22;5779;64.178;15.432;2022-11-18T12:45:52;-9.70;99.90
11446;DHT22;5779;64.178;15.432;2022-11-18T12:48:40;-9.80;99.90
11446;DHT22;5779;64.178;15.432;2022-11-18T12:51:44;-9.90;99.90
11446;DHT22;5779;64.178;15.432;2022-11-18T12:54:33;-9.80;99.90
11446;DHT22;5779;64.178;15.432;2022-11-18T12:57:22;-9.90;99.90
11446;DHT22;5779;64.178;15.432;2022-11-18T13:00:25;-9.60;99.90
11446;DHT22;5779;64.178;15.432;2022-11-18T13:03:21;-9.60;99.90
11446;DHT22;5779;64.178;15.432;2022-11-18T13:06:22;-9.60;99.90
11446;DHT22;5779;64.178;15.432;2022-11-18T13:09:15;-9.50;99.90
11446;DHT22;5779;64.178;15.432;2022-11-18T13:12:06;-9.40;99.90
11446;DHT22;5779;64.178;15.432;2022-11-18T13:14:54;-9.20;99.90
11446;DHT22;5779;64.178;15.432;2022-11-18T13:18:06;-9.20;99.90
11446;DHT22;5779;64.178;15.432;2022-11-18T13:20:56;-9.50;99.90
11446;DHT22;5779;64.178;15.432;2022-11-18T13:24:03;-9.80;99.90
11446;DHT22;5779;64.178;15.432;2022-11-18T13:26:53;-9.70;99.90
11446;DHT22;5779;64.178;15.432;2022-11-18T13:29:44;-9.70;99.90
11446;DHT22;5779;64.178;15.432;2022-11-18T13:32:33;-9.70;99.90
11446;DHT22;5779;64.178;15.432;2022-11-18T13:35:22;-9.80;99.90
11446;DHT22;5779;64.178;15.432;2022-11-18T13:38:21;-9.90;99.90
11446;DHT22;5779;64.178;15.432;2022-11-18T13:41:13;-10.00;99.90
11446;DHT22;5779;64.178;15.432;2022-11-18T13:44:16;-9.90;99.90
11446;DHT22;5779;64.178;15.432;2022-11-18T13:47:14;-9.80;99.90
11446;DHT22;5779;64.178;15.432;2022-11-18T13:50:13;-9.70;99.90
11446;DHT22;5779;64.178;15.432;2022-11-18T13:53:08;-9.60;99.90
11446;DHT22;5779;64.178;15.432;2022-11-18T13:56:04;-9.60;99.90
11446;DHT22;5779;64.178;15.432;2022-11-18T13:58:53;-9.70;99.90
11446;DHT22;5779;64.178;15.432;2022-11-18T14:01:43;-9.60;99.90
11446;DHT22;5779;64.178;15.432;2022-11-18T14:04:31;-9.60;99.90
11446;DHT22;5779;64.178;15.432;2022-11-18T14:07:26;-9.70;99.90
11446;DHT22;5779;64.178;15.432;2022-11-18T14:10:14;-9.60;99.90
11446;DHT22;5779;64.178;15.432;2022-11-18T14:13:11;-9.50;99.90
11446;DHT22;5779;64.178;15.432;2022-11-18T14:16:01;-9.50;99.90
11446;DHT22;5779;64.178;15.432;2022-11-18T14:18:50;-9.60;99.90
11446;DHT22;5779;64.178;15.432;2022-11-18T14:21:37;-10.00;99.90
11446;DHT22;5779;64.178;15.432;2022-11-18T14:24:26;-10.20;99.90
11446;DHT22;5779;64.178;15.432;2022-11-18T14:27:34;-10.10;99.90
11446;DHT22;5779;64.178;15.432;2022-11-18T14:30:34;-10.20;99.90
11446;DHT22;5779;64.178;15.432;2022-11-18T14:33:21;-10.20;99.90
11446;DHT22;5779;64.178;15.432;2022-11-18T14:36:10;-10.30;99.90
11446;DHT22;5779;64.178;15.432;2022-11-18T14:38:59;-10.30;99.90
11446;DHT22;5779;64.178;15.432;2022-11-18T14:41:46;-10.40;99.90
11446;DHT22;5779;64.178;15.432;2022-11-18T14:44:32;-10.60;99.90
11446;DHT22;5779;64.178;15.432;2022-11-18T14:47:25;-11.00;99.90
11446;DHT22;5779;64.178;15.432;2022-11-18T14:50:13;-11.10;99.90
11446;DHT22;5779;64.178;15.432;2022-11-18T14:53:00;-11.10;99.90
11446;DHT22;5779;64.178;15.432;2022-11-18T14:55:48;-11.20;99.90
11446;DHT22;5779;64.178;15.432;2022-11-18T14:58:36;-11.20;99.90
11446;DHT22;5779;64.178;15.432;2022-11-18T15:01:23;-11.10;99.90
11446;DHT22;5779;64.178;15.432;2022-11-18T15:04:13;-11.20;99.90
11446;DHT22;5779;64.178;15.432;2022-11-18T15:07:00;-11.10;99.90
11446;DHT22;5779;64.178;15.432;2022-11-18T15:09:47;-11.30;99.90
11446;DHT22;5779;64.178;15.432;2022-11-18T15:12:34;-11.30;99.90
11446;DHT22;5779;64.178;15.432;2022-11-18T15:15:21;-11.20;99.90
11446;DHT22;5779;64.178;15.432;2022-11-18T15:18:09;-11.10;99.90
11446;DHT22;5779;64.178;15.432;2022-11-18T15:20:57;-11.10;99.90
11446;DHT22;5779;64.178;15.432;2022-11-18T15:23:44;-11.20;99.90
11446;DHT22;5779;64.178;15.432;2022-11-18T15:26:34;-11.20;99.90
11446;DHT22;5779;64.178;15.432;2022-11-18T15:29:22;-11.20;99.90
11446;DHT22;5779;64.178;15.432;2022-11-18T15:32:10;-11.10;99.90
11446;DHT22;5779;64.178;15.432;2022-11-18T15:34:56;-11.20;99.90
11446;DHT22;5779;64.178;15.432;2022-11-18T15:37:45;-11.10;99.90
11446;DHT22;5779;64.178;15.432;2022-11-18T15:40:32;-11.00;99.90
11446;DHT22;5779;64.178;15.432;2022-11-18T15:43:19;-10.90;99.90
11446;DHT22;5779;64.178;15.432;2022-11-18T15:46:05;-10.90;99.90
11446;DHT22;5779;64.178;15.432;2022-11-18T15:48:55;-11.10;99.90
11446;DHT22;5779;64.178;15.432;2022-11-18T15:51:42;-11.20;99.90
11446;DHT22;5779;64.178;15.432;2022-11-18T15:54:31;-11.40;99.90
11446;DHT22;5779;64.178;15.432;2022-11-18T15:57:17;-11.90;99.90
11446;DHT22;5779;64.178;15.432;2022-11-18T16:00:05;-12.20;99.90
11446;DHT22;5779;64.178;15.432;2022-11-18T16:02:53;-12.30;99.90
11446;DHT22;5779;64.178;15.432;2022-11-18T16:05:40;-12.30;99.90
11446;DHT22;5779;64.178;15.432;2022-11-18T16:08:27;-12.00;99.90
11446;DHT22;5779;64.178;15.432;2022-11-18T16:11:17;-11.90;99.90
11446;DHT22;5779;64.178;15.432;2022-11-18T16:14:21;-11.80;99.90
11446;DHT22;5779;64.178;15.432;2022-11-18T16:17:08;-11.80;99.90
11446;DHT22;5779;64.178;15.432;2022-11-18T16:19:55;-11.90;99.90
11446;DHT22;5779;64.178;15.432;2022-11-18T16:22:42;-11.90;99.90
11446;DHT22;5779;64.178;15.432;2022-11-18T16:25:30;-11.90;99.90
11446;DHT22;5779;64.178;15.432;2022-11-18T16:28:19;-12.00;99.90
11446;DHT22;5779;64.178;15.432;2022-11-18T16:31:06;-12.00;99.90
11446;DHT22;5779;64.178;15.432;2022-11-18T16:34:12;-11.90;99.90
11446;DHT22;5779;64.178;15.432;2022-11-18T16:36:59;-11.90;99.90
11446;DHT22;5779;64.178;15.432;2022-11-18T16:39:46;-12.20;99.90
11446;DHT22;5779;64.178;15.432;2022-11-18T16:42:33;-12.10;99.90
11446;DHT22;5779;64.178;15.432;2022-11-18T16:45:21;-12.20;99.90
11446;DHT22;5779;64.178;15.432;2022-11-18T16:48:08;-12.20;99.90
11446;DHT22;5779;64.178;15.432;2022-11-18T16:51:05;-12.40;99.90
11446;DHT22;5779;64.178;15.432;2022-11-18T16:53:54;-12.50;99.90
11446;DHT22;5779;64.178;15.432;2022-11-18T16:56:42;-12.50;99.90
11446;DHT22;5779;64.178;15.432;2022-11-18T16:59:29;-12.30;99.90
11446;DHT22;5779;64.178;15.432;2022-11-18T17:02:19;-12.00;99.90
11446;DHT22;5779;64.178;15.432;2022-11-18T17:05:06;-11.80;99.90
11446;DHT22;5779;64.178;15.432;2022-11-18T17:07:53;-12.00;99.90
11446;DHT22;5779;64.178;15.432;2022-11-18T17:10:40;-12.00;99.90
11446;DHT22;5779;64.178;15.432;2022-11-18T17:13:27;-11.90;99.90
11446;DHT22;5779;64.178;15.432;2022-11-18T17:16:15;-11.80;99.90
11446;DHT22;5779;64.178;15.432;2022-11-18T17:19:03;-11.70;99.90
11446;DHT22;5779;64.178;15.432;2022-11-18T17:21:51;-11.80;99.90
11446;DHT22;5779;64.178;15.432;2022-11-18T17:24:37;-11.90;99.90
11446;DHT22;5779;64.178;15.432;2022-11-18T17:27:24;-11.80;99.90
11446;DHT22;5779;64.178;15.432;2022-11-18T17:30:12;-11.70;99.90
11446;DHT22;5779;64.178;15.432;2022-11-18T17:32:59;-11.70;99.90
11446;DHT22;5779;64.178;15.432;2022-11-18T17:35:57;-11.60;99.90
11446;DHT22;5779;64.178;15.432;2022-11-18T17:38:45;-11.70;99.90
11446;DHT22;5779;64.178;15.432;2022-11-18T17:41:32;-11.70;99.90
11446;DHT22;5779;64.178;15.432;2022-11-18T17:44:36;-11.70;99.90
11446;DHT22;5779;64.178;15.432;2022-11-18T17:47:23;-11.90;99.90
11446;DHT22;5779;64.178;15.432;2022-11-18T17:50:11;-12.10;99.90
11446;DHT22;5779;64.178;15.432;2022-11-18T17:52:59;-12.20;99.90
11446;DHT22;5779;64.178;15.432;2022-11-18T17:55:46;-12.20;99.90
11446;DHT22;5779;64.178;15.432;2022-11-18T17:58:33;-12.10;99.90
11446;DHT22;5779;64.178;15.432;2022-11-18T18:01:21;-12.10;99.90
11446;DHT22;5779;64.178;15.432;2022-11-18T18:04:08;-11.90;99.90